PWSweather.com
Personal Weather Stations
Station Observations
ELGHEKO
El Gheko Neighborhood Association, Tucson, AZ 85710

El Gheko Neighborhood AssociationTucson, AZ 85710

Lat: 32.226108, Lon: -110.84443

Elevation: 2598

Station Type: Davis 6153 Vantage Pro 2

http://www.elgheko.us

High Low Average
Temperature 92.8°F33.8°C 68.7°F20.4°C 78.0°F25.6°C
Dew Point 68.7°F20.4°C 55.7°F13.2°C 63.8°F17.7°C
Winds 6.0 mph 9.7 kmh Calm Calm 2.0 mph SE3.2 kmh SE
Wind Gusts 11.0 mph17.7 kmh -- 5.0 mph8.0 kmh
Humidity 89% 29% 65%
Pressure 29.87 in1011.5 mb 29.73 in1006.8 mb -
Precipitation 0.02 in0.5 mm - -
Hour Temp Dew Point Humidity Winds Wind Gusts Pressure Precip Precip Rate Daily Precip Total
12:00 AM 68.7°F20.4°C 64.7°F18.2°C 87% 1.0 mph SSE1.6 kmh SSE 5.0 mph8.0 kmh 29.76 in1007.8 mb 0.05 in1.3 mm 0.00 in0.0 mm 0.05 in1.3 mm
12:05 AM 68.8°F20.4°C 65.1°F18.4°C 88% 1.0 mph SE1.6 kmh SE 5.0 mph8.0 kmh 29.77 in1008.1 mb 0.01 in0.3 mm 0.00 in0.0 mm 0.05 in1.3 mm
12:10 AM 69.0°F20.6°C 65.3°F18.5°C 88% 2.0 mph ENE3.2 kmh ENE 5.0 mph8.0 kmh 29.77 in1008.1 mb 0.00 in0.0 mm 0.00 in0.0 mm 0.05 in1.3 mm
12:15 AM 69.1°F20.6°C 65.7°F18.7°C 89% 3.0 mph NW4.8 kmh NW 7.0 mph11.3 kmh 29.78 in1008.5 mb 0.00 in0.0 mm 0.00 in0.0 mm 0.05 in1.3 mm
12:20 AM 69.3°F20.7°C 65.9°F18.8°C 89% 3.0 mph NW4.8 kmh NW 7.0 mph11.3 kmh 29.77 in1008.1 mb 0.00 in0.0 mm 0.00 in0.0 mm 0.05 in1.3 mm
12:25 AM 69.5°F20.8°C 66.1°F18.9°C 89% 4.0 mph N6.4 kmh N 9.0 mph14.5 kmh 29.77 in1008.1 mb 0.00 in0.0 mm 0.00 in0.0 mm 0.05 in1.3 mm
12:30 AM 69.6°F20.9°C 66.2°F19.0°C 89% 4.0 mph N6.4 kmh N 9.0 mph14.5 kmh 29.76 in1007.8 mb 0.00 in0.0 mm 0.00 in0.0 mm 0.05 in1.3 mm
12:35 AM 69.7°F20.9°C 66.3°F19.1°C 89% 4.0 mph N6.4 kmh N 8.0 mph12.9 kmh 29.76 in1007.8 mb 0.00 in0.0 mm 0.00 in0.0 mm 0.05 in1.3 mm
12:40 AM 69.9°F21.1°C 66.5°F19.2°C 89% 3.0 mph N4.8 kmh N 7.0 mph11.3 kmh 29.75 in1007.5 mb 0.00 in0.0 mm 0.00 in0.0 mm 0.05 in1.3 mm
12:45 AM 69.9°F21.1°C 66.5°F19.2°C 89% 2.0 mph NNE3.2 kmh NNE 7.0 mph11.3 kmh 29.76 in1007.8 mb 0.00 in0.0 mm 0.00 in0.0 mm 0.05 in1.3 mm
12:50 AM 70.0°F21.1°C 66.6°F19.2°C 89% 2.0 mph NNE3.2 kmh NNE 5.0 mph8.0 kmh 29.74 in1007.1 mb 0.00 in0.0 mm 0.00 in0.0 mm 0.05 in1.3 mm
12:55 AM 70.1°F21.2°C 66.7°F19.3°C 89% 3.0 mph NNE4.8 kmh NNE 8.0 mph12.9 kmh 29.73 in1006.8 mb 0.00 in0.0 mm 0.00 in0.0 mm 0.05 in1.3 mm
01:00 AM 70.2°F21.2°C 66.8°F19.3°C 89% 3.0 mph NNE4.8 kmh NNE 8.0 mph12.9 kmh 29.74 in1007.1 mb 0.00 in0.0 mm 0.00 in0.0 mm 0.05 in1.3 mm
01:05 AM 70.3°F21.3°C 66.9°F19.4°C 89% 2.0 mph SSE3.2 kmh SSE 6.0 mph9.7 kmh 29.74 in1007.1 mb 0.00 in0.0 mm 0.00 in0.0 mm 0.05 in1.3 mm
01:10 AM 70.3°F21.3°C 66.9°F19.4°C 89% 2.0 mph SSW3.2 kmh SSW 6.0 mph9.7 kmh 29.74 in1007.1 mb 0.00 in0.0 mm 0.00 in0.0 mm 0.05 in1.3 mm
01:15 AM 70.3°F21.3°C 66.9°F19.4°C 89% 2.0 mph SSW3.2 kmh SSW 6.0 mph9.7 kmh 29.74 in1007.1 mb 0.00 in0.0 mm 0.00 in0.0 mm 0.05 in1.3 mm
01:20 AM 70.2°F21.2°C 66.8°F19.3°C 89% 2.0 mph S3.2 kmh S 5.0 mph8.0 kmh 29.73 in1006.8 mb 0.00 in0.0 mm 0.00 in0.0 mm 0.05 in1.3 mm
01:25 AM 70.2°F21.2°C 66.8°F19.3°C 89% 3.0 mph S4.8 kmh S 8.0 mph12.9 kmh 29.73 in1006.8 mb 0.00 in0.0 mm 0.00 in0.0 mm 0.05 in1.3 mm
01:30 AM 70.1°F21.2°C 66.7°F19.3°C 89% 3.0 mph SSW4.8 kmh SSW 8.0 mph12.9 kmh 29.73 in1006.8 mb 0.00 in0.0 mm 0.00 in0.0 mm 0.05 in1.3 mm
01:35 AM 70.1°F21.2°C 66.7°F19.3°C 89% 3.0 mph SSW4.8 kmh SSW 8.0 mph12.9 kmh 29.73 in1006.8 mb 0.00 in0.0 mm 0.00 in0.0 mm 0.05 in1.3 mm
01:40 AM 70.1°F21.2°C 66.7°F19.3°C 89% 3.0 mph SSW4.8 kmh SSW 7.0 mph11.3 kmh 29.73 in1006.8 mb 0.00 in0.0 mm 0.00 in0.0 mm 0.05 in1.3 mm
01:45 AM 70.0°F21.1°C 66.6°F19.2°C 89% 3.0 mph SSW4.8 kmh SSW 6.0 mph9.7 kmh 29.73 in1006.8 mb 0.00 in0.0 mm 0.00 in0.0 mm 0.05 in1.3 mm
01:50 AM 70.0°F21.1°C 66.6°F19.2°C 89% 4.0 mph S6.4 kmh S 8.0 mph12.9 kmh 29.73 in1006.8 mb 0.00 in0.0 mm 0.00 in0.0 mm 0.05 in1.3 mm
01:55 AM 70.1°F21.2°C 66.7°F19.3°C 89% 5.0 mph S8.0 kmh S 8.0 mph12.9 kmh 29.74 in1007.1 mb 0.00 in0.0 mm 0.00 in0.0 mm 0.05 in1.3 mm
02:00 AM 70.0°F21.1°C 66.3°F19.1°C 88% 4.0 mph S6.4 kmh S 8.0 mph12.9 kmh 29.74 in1007.1 mb 0.00 in0.0 mm 0.00 in0.0 mm 0.05 in1.3 mm
02:05 AM 70.0°F21.1°C 66.0°F18.9°C 87% 5.0 mph S8.0 kmh S 9.0 mph14.5 kmh 29.74 in1007.1 mb 0.00 in0.0 mm 0.00 in0.0 mm 0.05 in1.3 mm
02:10 AM 70.1°F21.2°C 66.0°F18.9°C 87% 5.0 mph S8.0 kmh S 9.0 mph14.5 kmh 29.74 in1007.1 mb 0.00 in0.0 mm 0.00 in0.0 mm 0.05 in1.3 mm
02:15 AM 70.2°F21.2°C 65.8°F18.8°C 86% 3.0 mph S4.8 kmh S 9.0 mph14.5 kmh 29.75 in1007.5 mb 0.00 in0.0 mm 0.00 in0.0 mm 0.05 in1.3 mm
02:20 AM 70.2°F21.2°C 65.5°F18.6°C 85% 3.0 mph SSE4.8 kmh SSE 6.0 mph9.7 kmh 29.75 in1007.5 mb 0.00 in0.0 mm 0.00 in0.0 mm 0.05 in1.3 mm
02:25 AM 70.4°F21.3°C 65.3°F18.5°C 84% 2.0 mph SSE3.2 kmh SSE 6.0 mph9.7 kmh 29.75 in1007.5 mb 0.00 in0.0 mm 0.00 in0.0 mm 0.05 in1.3 mm
02:30 AM 70.5°F21.4°C 65.4°F18.6°C 84% 1.0 mph SSE1.6 kmh SSE 5.0 mph8.0 kmh 29.75 in1007.5 mb 0.00 in0.0 mm 0.00 in0.0 mm 0.05 in1.3 mm
02:35 AM 70.6°F21.4°C 65.2°F18.4°C 83% 1.0 mph SE1.6 kmh SE 5.0 mph8.0 kmh 29.76 in1007.8 mb 0.00 in0.0 mm 0.00 in0.0 mm 0.05 in1.3 mm
02:40 AM 70.6°F21.4°C 65.5°F18.6°C 84% Calm Calm 2.0 mph3.2 kmh 29.76 in1007.8 mb 0.00 in0.0 mm 0.00 in0.0 mm 0.05 in1.3 mm
02:45 AM 70.7°F21.5°C 65.6°F18.7°C 84% Calm Calm 2.0 mph3.2 kmh 29.76 in1007.8 mb 0.00 in0.0 mm 0.00 in0.0 mm 0.05 in1.3 mm
02:50 AM 70.8°F21.6°C 65.7°F18.7°C 84% 1.0 mph SE1.6 kmh SE 3.0 mph4.8 kmh 29.76 in1007.8 mb 0.00 in0.0 mm 0.00 in0.0 mm 0.05 in1.3 mm
02:55 AM 70.8°F21.6°C 65.7°F18.7°C 84% 1.0 mph SE1.6 kmh SE 3.0 mph4.8 kmh 29.76 in1007.8 mb 0.00 in0.0 mm 0.00 in0.0 mm 0.05 in1.3 mm
03:00 AM 70.9°F21.6°C 66.2°F19.0°C 85% 1.0 mph SE1.6 kmh SE 3.0 mph4.8 kmh 29.77 in1008.1 mb 0.00 in0.0 mm 0.00 in0.0 mm 0.05 in1.3 mm
03:05 AM 70.9°F21.6°C 66.2°F19.0°C 85% 1.0 mph SE1.6 kmh SE 3.0 mph4.8 kmh 29.77 in1008.1 mb 0.00 in0.0 mm 0.00 in0.0 mm 0.05 in1.3 mm
03:10 AM 70.9°F21.6°C 66.2°F19.0°C 85% 1.0 mph SE1.6 kmh SE 3.0 mph4.8 kmh 29.77 in1008.1 mb 0.00 in0.0 mm 0.00 in0.0 mm 0.05 in1.3 mm
03:15 AM 70.9°F21.6°C 66.2°F19.0°C 85% 1.0 mph SE1.6 kmh SE 3.0 mph4.8 kmh 29.77 in1008.1 mb 0.00 in0.0 mm 0.00 in0.0 mm 0.05 in1.3 mm
03:20 AM 70.9°F21.6°C 66.2°F19.0°C 85% Calm Calm 2.0 mph3.2 kmh 29.77 in1008.1 mb 0.00 in0.0 mm 0.00 in0.0 mm 0.05 in1.3 mm
03:25 AM 70.9°F21.6°C 66.2°F19.0°C 85% Calm Calm -- 29.77 in1008.1 mb 0.00 in0.0 mm 0.00 in0.0 mm 0.05 in1.3 mm
03:30 AM 70.9°F21.6°C 66.5°F19.2°C 86% Calm Calm -- 29.77 in1008.1 mb 0.00 in0.0 mm 0.00 in0.0 mm 0.05 in1.3 mm
03:35 AM 70.9°F21.6°C 66.5°F19.2°C 86% Calm Calm -- 29.77 in1008.1 mb 0.00 in0.0 mm 0.00 in0.0 mm 0.05 in1.3 mm
03:40 AM 70.9°F21.6°C 66.5°F19.2°C 86% Calm Calm -- 29.76 in1007.8 mb 0.00 in0.0 mm 0.00 in0.0 mm 0.05 in1.3 mm
03:45 AM 70.8°F21.6°C 66.4°F19.1°C 86% Calm Calm -- 29.77 in1008.1 mb 0.00 in0.0 mm 0.00 in0.0 mm 0.05 in1.3 mm
03:50 AM 70.9°F21.6°C 66.5°F19.2°C 86% Calm Calm -- 29.77 in1008.1 mb 0.00 in0.0 mm 0.00 in0.0 mm 0.05 in1.3 mm
03:55 AM 70.9°F21.6°C 66.5°F19.2°C 86% Calm Calm -- 29.77 in1008.1 mb 0.00 in0.0 mm 0.00 in0.0 mm 0.05 in1.3 mm
04:00 AM 70.9°F21.6°C 66.5°F19.2°C 86% Calm Calm -- 29.78 in1008.5 mb 0.00 in0.0 mm 0.00 in0.0 mm 0.05 in1.3 mm
04:05 AM 70.9°F21.6°C 66.5°F19.2°C 86% Calm Calm -- 29.78 in1008.5 mb 0.00 in0.0 mm 0.00 in0.0 mm 0.05 in1.3 mm
04:10 AM 70.8°F21.6°C 66.4°F19.1°C 86% Calm Calm -- 29.78 in1008.5 mb 0.00 in0.0 mm 0.00 in0.0 mm 0.05 in1.3 mm
04:15 AM 70.8°F21.6°C 66.4°F19.1°C 86% Calm Calm -- 29.79 in1008.8 mb 0.00 in0.0 mm 0.00 in0.0 mm 0.05 in1.3 mm
04:20 AM 70.9°F21.6°C 66.5°F19.2°C 86% Calm Calm -- 29.79 in1008.8 mb 0.00 in0.0 mm 0.00 in0.0 mm 0.05 in1.3 mm
04:25 AM 70.9°F21.6°C 66.5°F19.2°C 86% Calm Calm -- 29.79 in1008.8 mb 0.00 in0.0 mm 0.00 in0.0 mm 0.05 in1.3 mm
04:30 AM 70.8°F21.6°C 66.4°F19.1°C 86% Calm Calm -- 29.79 in1008.8 mb 0.00 in0.0 mm 0.00 in0.0 mm 0.05 in1.3 mm
04:35 AM 70.8°F21.6°C 66.4°F19.1°C 86% Calm Calm -- 29.79 in1008.8 mb 0.00 in0.0 mm 0.00 in0.0 mm 0.05 in1.3 mm
04:40 AM 70.7°F21.5°C 66.0°F18.9°C 85% Calm Calm -- 29.79 in1008.8 mb 0.00 in0.0 mm 0.00 in0.0 mm 0.05 in1.3 mm
04:45 AM 70.7°F21.5°C 66.3°F19.1°C 86% Calm Calm -- 29.79 in1008.8 mb 0.00 in0.0 mm 0.00 in0.0 mm 0.05 in1.3 mm
04:50 AM 70.8°F21.6°C 66.4°F19.1°C 86% Calm Calm -- 29.79 in1008.8 mb 0.00 in0.0 mm 0.00 in0.0 mm 0.05 in1.3 mm
04:55 AM 70.8°F21.6°C 66.4°F19.1°C 86% Calm Calm -- 29.79 in1008.8 mb 0.00 in0.0 mm 0.00 in0.0 mm 0.05 in1.3 mm
05:00 AM 70.9°F21.6°C 66.5°F19.2°C 86% Calm Calm -- 29.79 in1008.8 mb 0.00 in0.0 mm 0.00 in0.0 mm 0.05 in1.3 mm
05:05 AM 70.9°F21.6°C 66.8°F19.3°C 87% Calm Calm -- 29.79 in1008.8 mb 0.00 in0.0 mm 0.00 in0.0 mm 0.05 in1.3 mm
05:10 AM 70.9°F21.6°C 66.8°F19.3°C 87% Calm Calm -- 29.79 in1008.8 mb 0.00 in0.0 mm 0.00 in0.0 mm 0.05 in1.3 mm
05:15 AM 70.8°F21.6°C 66.4°F19.1°C 86% Calm Calm -- 29.79 in1008.8 mb 0.00 in0.0 mm 0.00 in0.0 mm 0.05 in1.3 mm
05:20 AM 70.8°F21.6°C 66.4°F19.1°C 86% Calm Calm -- 29.79 in1008.8 mb 0.00 in0.0 mm 0.00 in0.0 mm 0.05 in1.3 mm
05:25 AM 70.7°F21.5°C 66.3°F19.1°C 86% Calm Calm -- 29.80 in1009.1 mb 0.00 in0.0 mm 0.00 in0.0 mm 0.05 in1.3 mm
05:30 AM 70.7°F21.5°C 66.3°F19.1°C 86% Calm Calm -- 29.80 in1009.1 mb 0.00 in0.0 mm 0.00 in0.0 mm 0.05 in1.3 mm
05:35 AM 70.6°F21.4°C 66.2°F19.0°C 86% Calm Calm -- 29.80 in1009.1 mb 0.00 in0.0 mm 0.00 in0.0 mm 0.05 in1.3 mm
05:40 AM 70.5°F21.4°C 66.1°F18.9°C 86% Calm Calm -- 29.80 in1009.1 mb 0.00 in0.0 mm 0.00 in0.0 mm 0.05 in1.3 mm
05:45 AM 70.5°F21.4°C 66.1°F18.9°C 86% Calm Calm -- 29.80 in1009.1 mb 0.00 in0.0 mm 0.00 in0.0 mm 0.05 in1.3 mm
05:50 AM 70.4°F21.3°C 66.0°F18.9°C 86% Calm Calm 2.0 mph3.2 kmh 29.80 in1009.1 mb 0.00 in0.0 mm 0.00 in0.0 mm 0.05 in1.3 mm
05:55 AM 70.3°F21.3°C 65.9°F18.8°C 86% Calm Calm 2.0 mph3.2 kmh 29.80 in1009.1 mb 0.00 in0.0 mm 0.00 in0.0 mm 0.05 in1.3 mm
06:00 AM 70.4°F21.3°C 66.0°F18.9°C 86% Calm Calm 2.0 mph3.2 kmh 29.80 in1009.1 mb 0.00 in0.0 mm 0.00 in0.0 mm 0.05 in1.3 mm
06:05 AM 70.4°F21.3°C 66.0°F18.9°C 86% Calm Calm 2.0 mph3.2 kmh 29.80 in1009.1 mb 0.00 in0.0 mm 0.00 in0.0 mm 0.05 in1.3 mm
06:10 AM 70.5°F21.4°C 66.1°F18.9°C 86% Calm Calm 2.0 mph3.2 kmh 29.80 in1009.1 mb 0.00 in0.0 mm 0.00 in0.0 mm 0.05 in1.3 mm
06:15 AM 70.6°F21.4°C 66.2°F19.0°C 86% Calm Calm 3.0 mph4.8 kmh 29.81 in1009.5 mb 0.00 in0.0 mm 0.00 in0.0 mm 0.05 in1.3 mm
06:20 AM 70.8°F21.6°C 66.4°F19.1°C 86% Calm Calm 3.0 mph4.8 kmh 29.81 in1009.5 mb 0.00 in0.0 mm 0.00 in0.0 mm 0.05 in1.3 mm
06:25 AM 70.9°F21.6°C 66.5°F19.2°C 86% Calm Calm 1.0 mph1.6 kmh 29.81 in1009.5 mb 0.00 in0.0 mm 0.00 in0.0 mm 0.05 in1.3 mm
06:30 AM 71.1°F21.7°C 66.7°F19.3°C 86% Calm Calm 2.0 mph3.2 kmh 29.81 in1009.5 mb 0.00 in0.0 mm 0.00 in0.0 mm 0.05 in1.3 mm
06:35 AM 71.4°F21.9°C 66.7°F19.3°C 85% Calm Calm 2.0 mph3.2 kmh 29.82 in1009.8 mb 0.00 in0.0 mm 0.00 in0.0 mm 0.05 in1.3 mm
06:40 AM 71.6°F22.0°C 66.5°F19.2°C 84% 1.0 mph SE1.6 kmh SE 3.0 mph4.8 kmh 29.82 in1009.8 mb 0.00 in0.0 mm 0.00 in0.0 mm 0.05 in1.3 mm
06:45 AM 72.0°F22.2°C 66.6°F19.2°C 83% 1.0 mph SE1.6 kmh SE 3.0 mph4.8 kmh 29.82 in1009.8 mb 0.00 in0.0 mm 0.00 in0.0 mm 0.05 in1.3 mm
06:50 AM 72.5°F22.5°C 66.7°F19.3°C 82% 1.0 mph SE1.6 kmh SE 3.0 mph4.8 kmh 29.82 in1009.8 mb 0.00 in0.0 mm 0.00 in0.0 mm 0.05 in1.3 mm
06:55 AM 72.8°F22.7°C 66.6°F19.2°C 81% 1.0 mph SE1.6 kmh SE 3.0 mph4.8 kmh 29.82 in1009.8 mb 0.00 in0.0 mm 0.00 in0.0 mm 0.05 in1.3 mm
07:00 AM 73.1°F22.8°C 66.2°F19.0°C 79% 1.0 mph SE1.6 kmh SE 3.0 mph4.8 kmh 29.82 in1009.8 mb 0.00 in0.0 mm 0.00 in0.0 mm 0.05 in1.3 mm
07:05 AM 73.3°F22.9°C 66.0°F18.9°C 78% 1.0 mph SE1.6 kmh SE 3.0 mph4.8 kmh 29.82 in1009.8 mb 0.00 in0.0 mm 0.00 in0.0 mm 0.05 in1.3 mm
07:10 AM 73.5°F23.1°C 65.8°F18.8°C 77% 1.0 mph SE1.6 kmh SE 2.0 mph3.2 kmh 29.83 in1010.2 mb 0.00 in0.0 mm 0.00 in0.0 mm 0.05 in1.3 mm
07:15 AM 73.7°F23.2°C 66.0°F18.9°C 77% 1.0 mph SE1.6 kmh SE 3.0 mph4.8 kmh 29.83 in1010.2 mb 0.00 in0.0 mm 0.00 in0.0 mm 0.05 in1.3 mm
07:20 AM 74.2°F23.4°C 65.8°F18.8°C 75% 1.0 mph SE1.6 kmh SE 3.0 mph4.8 kmh 29.82 in1009.8 mb 0.00 in0.0 mm 0.00 in0.0 mm 0.05 in1.3 mm
07:25 AM 74.7°F23.7°C 65.9°F18.8°C 74% 1.0 mph SE1.6 kmh SE 3.0 mph4.8 kmh 29.83 in1010.2 mb 0.00 in0.0 mm 0.00 in0.0 mm 0.05 in1.3 mm
07:30 AM 75.4°F24.1°C 65.7°F18.7°C 72% 1.0 mph SE1.6 kmh SE 3.0 mph4.8 kmh 29.82 in1009.8 mb 0.00 in0.0 mm 0.00 in0.0 mm 0.05 in1.3 mm
07:35 AM 76.1°F24.5°C 65.6°F18.7°C 70% 1.0 mph SE1.6 kmh SE 3.0 mph4.8 kmh 29.82 in1009.8 mb 0.00 in0.0 mm 0.00 in0.0 mm 0.05 in1.3 mm
07:40 AM 76.7°F24.8°C 65.8°F18.8°C 69% Calm Calm 1.0 mph1.6 kmh 29.83 in1010.2 mb 0.00 in0.0 mm 0.00 in0.0 mm 0.05 in1.3 mm
07:45 AM 77.4°F25.2°C 65.6°F18.7°C 67% 1.0 mph SSE1.6 kmh SSE 3.0 mph4.8 kmh 29.83 in1010.2 mb 0.00 in0.0 mm 0.00 in0.0 mm 0.05 in1.3 mm
07:50 AM 77.9°F25.5°C 65.2°F18.4°C 65% 1.0 mph S1.6 kmh S 3.0 mph4.8 kmh 29.83 in1010.2 mb 0.00 in0.0 mm 0.00 in0.0 mm 0.05 in1.3 mm
07:55 AM 78.2°F25.7°C 65.0°F18.3°C 64% 1.0 mph SW1.6 kmh SW 2.0 mph3.2 kmh 29.83 in1010.2 mb 0.00 in0.0 mm 0.00 in0.0 mm 0.05 in1.3 mm
08:00 AM 78.3°F25.7°C 65.1°F18.4°C 64% 1.0 mph SW1.6 kmh SW 3.0 mph4.8 kmh 29.83 in1010.2 mb 0.00 in0.0 mm 0.00 in0.0 mm 0.05 in1.3 mm
08:05 AM 78.4°F25.8°C 64.8°F18.2°C 63% 1.0 mph SW1.6 kmh SW 3.0 mph4.8 kmh 29.83 in1010.2 mb 0.00 in0.0 mm 0.00 in0.0 mm 0.05 in1.3 mm
08:10 AM 78.3°F25.7°C 64.7°F18.2°C 63% 1.0 mph SW1.6 kmh SW 3.0 mph4.8 kmh 29.83 in1010.2 mb 0.00 in0.0 mm 0.00 in0.0 mm 0.05 in1.3 mm
08:15 AM 78.2°F25.7°C 64.1°F17.8°C 62% 2.0 mph SW3.2 kmh SW 3.0 mph4.8 kmh 29.84 in1010.5 mb 0.00 in0.0 mm 0.00 in0.0 mm 0.05 in1.3 mm
08:20 AM 78.1°F25.6°C 64.9°F18.3°C 64% 2.0 mph SW3.2 kmh SW 4.0 mph6.4 kmh 29.84 in1010.5 mb 0.00 in0.0 mm 0.00 in0.0 mm 0.05 in1.3 mm
08:25 AM 77.8°F25.4°C 64.2°F17.9°C 63% 2.0 mph SW3.2 kmh SW 4.0 mph6.4 kmh 29.84 in1010.5 mb 0.00 in0.0 mm 0.00 in0.0 mm 0.05 in1.3 mm
08:30 AM 77.7°F25.4°C 63.6°F17.6°C 62% 2.0 mph SW3.2 kmh SW 4.0 mph6.4 kmh 29.84 in1010.5 mb 0.00 in0.0 mm 0.00 in0.0 mm 0.05 in1.3 mm
08:35 AM 77.5°F25.3°C 63.9°F17.7°C 63% 1.0 mph SW1.6 kmh SW 4.0 mph6.4 kmh 29.85 in1010.8 mb 0.00 in0.0 mm 0.00 in0.0 mm 0.05 in1.3 mm
08:40 AM 77.4°F25.2°C 63.8°F17.7°C 63% 1.0 mph SW1.6 kmh SW 3.0 mph4.8 kmh 29.84 in1010.5 mb 0.00 in0.0 mm 0.00 in0.0 mm 0.05 in1.3 mm
08:45 AM 77.3°F25.2°C 63.7°F17.6°C 63% 1.0 mph SW1.6 kmh SW 3.0 mph4.8 kmh 29.84 in1010.5 mb 0.00 in0.0 mm 0.00 in0.0 mm 0.05 in1.3 mm
08:50 AM 77.2°F25.1°C 63.6°F17.6°C 63% 1.0 mph SW1.6 kmh SW 2.0 mph3.2 kmh 29.85 in1010.8 mb 0.00 in0.0 mm 0.00 in0.0 mm 0.05 in1.3 mm
08:55 AM 77.3°F25.2°C 67.2°F19.6°C 71% 1.0 mph SW1.6 kmh SW 2.0 mph3.2 kmh 29.85 in1010.8 mb 0.02 in0.5 mm 0.24 in6.1 mm 0.02 in0.5 mm
09:00 AM 77.2°F25.1°C 68.7°F20.4°C 75% Calm Calm 2.0 mph3.2 kmh 29.85 in1010.8 mb 0.02 in0.5 mm 0.00 in0.0 mm 0.02 in0.5 mm
09:05 AM 76.8°F24.9°C 67.9°F19.9°C 74% Calm Calm 1.0 mph1.6 kmh 29.85 in1010.8 mb 0.02 in0.5 mm 0.00 in0.0 mm 0.02 in0.5 mm
09:10 AM 76.4°F24.7°C 67.5°F19.7°C 74% Calm Calm -- 29.86 in1011.2 mb 0.02 in0.5 mm 0.00 in0.0 mm 0.02 in0.5 mm
09:15 AM 76.0°F24.4°C 68.3°F20.2°C 77% Calm Calm 1.0 mph1.6 kmh 29.86 in1011.2 mb 0.02 in0.5 mm 0.00 in0.0 mm 0.02 in0.5 mm
09:20 AM 75.7°F24.3°C 67.2°F19.6°C 75% Calm Calm 1.0 mph1.6 kmh 29.86 in1011.2 mb 0.02 in0.5 mm 0.00 in0.0 mm 0.02 in0.5 mm
09:25 AM 75.3°F24.1°C 67.2°F19.6°C 76% 1.0 mph E1.6 kmh E 4.0 mph6.4 kmh 29.86 in1011.2 mb 0.02 in0.5 mm 0.00 in0.0 mm 0.02 in0.5 mm
09:30 AM 75.2°F24.0°C 66.7°F19.3°C 75% 1.0 mph E1.6 kmh E 4.0 mph6.4 kmh 29.86 in1011.2 mb 0.02 in0.5 mm 0.00 in0.0 mm 0.02 in0.5 mm
09:35 AM 75.2°F24.0°C 66.7°F19.3°C 75% 1.0 mph E1.6 kmh E 3.0 mph4.8 kmh 29.86 in1011.2 mb 0.02 in0.5 mm 0.00 in0.0 mm 0.02 in0.5 mm
09:40 AM 75.3°F24.1°C 67.2°F19.6°C 76% 2.0 mph E3.2 kmh E 3.0 mph4.8 kmh 29.86 in1011.2 mb 0.02 in0.5 mm 0.00 in0.0 mm 0.02 in0.5 mm
09:45 AM 75.4°F24.1°C 67.3°F19.6°C 76% 2.0 mph E3.2 kmh E 4.0 mph6.4 kmh 29.87 in1011.5 mb 0.02 in0.5 mm 0.00 in0.0 mm 0.02 in0.5 mm
09:50 AM 75.4°F24.1°C 67.3°F19.6°C 76% 2.0 mph E3.2 kmh E 6.0 mph9.7 kmh 29.87 in1011.5 mb 0.02 in0.5 mm 0.00 in0.0 mm 0.02 in0.5 mm
09:55 AM 75.4°F24.1°C 66.1°F18.9°C 73% 2.0 mph E3.2 kmh E 6.0 mph9.7 kmh 29.87 in1011.5 mb 0.00 in0.0 mm 0.00 in0.0 mm 0.02 in0.5 mm
10:00 AM 75.4°F24.1°C 66.1°F18.9°C 73% 3.0 mph ENE4.8 kmh ENE 7.0 mph11.3 kmh 29.86 in1011.2 mb 0.00 in0.0 mm 0.00 in0.0 mm 0.02 in0.5 mm
10:05 AM 75.5°F24.2°C 66.6°F19.2°C 74% 3.0 mph NE4.8 kmh NE 7.0 mph11.3 kmh 29.87 in1011.5 mb 0.00 in0.0 mm 0.00 in0.0 mm 0.02 in0.5 mm
10:10 AM 75.5°F24.2°C 66.6°F19.2°C 74% 3.0 mph ENE4.8 kmh ENE 7.0 mph11.3 kmh 29.87 in1011.5 mb 0.00 in0.0 mm 0.00 in0.0 mm 0.02 in0.5 mm
10:15 AM 76.0°F24.4°C 67.9°F19.9°C 76% 3.0 mph ENE4.8 kmh ENE 7.0 mph11.3 kmh 29.86 in1011.2 mb 0.00 in0.0 mm 0.00 in0.0 mm 0.02 in0.5 mm
10:20 AM 76.8°F24.9°C 68.3°F20.2°C 75% 3.0 mph NE4.8 kmh NE 6.0 mph9.7 kmh 29.86 in1011.2 mb 0.00 in0.0 mm 0.00 in0.0 mm 0.02 in0.5 mm
10:25 AM 77.2°F25.1°C 67.1°F19.5°C 71% 3.0 mph NE4.8 kmh NE 6.0 mph9.7 kmh 29.86 in1011.2 mb 0.00 in0.0 mm 0.00 in0.0 mm 0.02 in0.5 mm
10:30 AM 77.4°F25.2°C 66.0°F18.9°C 68% 3.0 mph NE4.8 kmh NE 6.0 mph9.7 kmh 29.87 in1011.5 mb 0.00 in0.0 mm 0.00 in0.0 mm 0.02 in0.5 mm
10:35 AM 77.4°F25.2°C 66.8°F19.3°C 70% 3.0 mph ENE4.8 kmh ENE 6.0 mph9.7 kmh 29.87 in1011.5 mb 0.00 in0.0 mm 0.00 in0.0 mm 0.02 in0.5 mm
10:40 AM 77.3°F25.2°C 67.6°F19.8°C 72% 3.0 mph E4.8 kmh E 7.0 mph11.3 kmh 29.87 in1011.5 mb 0.00 in0.0 mm 0.00 in0.0 mm 0.02 in0.5 mm
10:45 AM 76.8°F24.9°C 67.1°F19.5°C 72% 4.0 mph E6.4 kmh E 10.0 mph16.1 kmh 29.87 in1011.5 mb 0.00 in0.0 mm 0.00 in0.0 mm 0.02 in0.5 mm
10:50 AM 76.4°F24.7°C 66.3°F19.1°C 71% 4.0 mph E6.4 kmh E 10.0 mph16.1 kmh 29.87 in1011.5 mb 0.00 in0.0 mm 0.00 in0.0 mm 0.02 in0.5 mm
10:55 AM 76.1°F24.5°C 66.0°F18.9°C 71% 3.0 mph E4.8 kmh E 7.0 mph11.3 kmh 29.86 in1011.2 mb 0.00 in0.0 mm 0.00 in0.0 mm 0.02 in0.5 mm
11:00 AM 75.9°F24.4°C 65.4°F18.6°C 70% 3.0 mph E4.8 kmh E 7.0 mph11.3 kmh 29.86 in1011.2 mb 0.00 in0.0 mm 0.00 in0.0 mm 0.02 in0.5 mm
11:05 AM 75.8°F24.3°C 66.1°F18.9°C 72% 3.0 mph ENE4.8 kmh ENE 7.0 mph11.3 kmh 29.86 in1011.2 mb 0.00 in0.0 mm 0.00 in0.0 mm 0.02 in0.5 mm
11:10 AM 75.8°F24.3°C 66.1°F18.9°C 72% 2.0 mph ENE3.2 kmh ENE 7.0 mph11.3 kmh 29.86 in1011.2 mb 0.00 in0.0 mm 0.00 in0.0 mm 0.02 in0.5 mm
11:15 AM 75.8°F24.3°C 65.3°F18.5°C 70% 2.0 mph ENE3.2 kmh ENE 4.0 mph6.4 kmh 29.86 in1011.2 mb 0.00 in0.0 mm 0.00 in0.0 mm 0.02 in0.5 mm
11:20 AM 75.8°F24.3°C 65.3°F18.5°C 70% 2.0 mph E3.2 kmh E 4.0 mph6.4 kmh 29.86 in1011.2 mb 0.00 in0.0 mm 0.00 in0.0 mm 0.02 in0.5 mm
11:25 AM 75.8°F24.3°C 64.9°F18.3°C 69% 2.0 mph ESE3.2 kmh ESE 4.0 mph6.4 kmh 29.86 in1011.2 mb 0.00 in0.0 mm 0.00 in0.0 mm 0.02 in0.5 mm
11:30 AM 75.8°F24.3°C 64.9°F18.3°C 69% 2.0 mph E3.2 kmh E 7.0 mph11.3 kmh 29.87 in1011.5 mb 0.00 in0.0 mm 0.00 in0.0 mm 0.02 in0.5 mm
11:35 AM 75.9°F24.4°C 65.0°F18.3°C 69% 3.0 mph E4.8 kmh E 8.0 mph12.9 kmh 29.87 in1011.5 mb 0.00 in0.0 mm 0.00 in0.0 mm 0.02 in0.5 mm
11:40 AM 75.8°F24.3°C 64.9°F18.3°C 69% 3.0 mph ESE4.8 kmh ESE 8.0 mph12.9 kmh 29.87 in1011.5 mb 0.00 in0.0 mm 0.00 in0.0 mm 0.02 in0.5 mm
11:45 AM 75.5°F24.2°C 64.2°F17.9°C 68% 3.0 mph E4.8 kmh E 7.0 mph11.3 kmh 29.86 in1011.2 mb 0.00 in0.0 mm 0.00 in0.0 mm 0.02 in0.5 mm
11:50 AM 75.2°F24.0°C 64.3°F17.9°C 69% 4.0 mph E6.4 kmh E 9.0 mph14.5 kmh 29.86 in1011.2 mb 0.00 in0.0 mm 0.00 in0.0 mm 0.02 in0.5 mm
11:55 AM 74.6°F23.7°C 64.2°F17.9°C 70% 5.0 mph E8.0 kmh E 9.0 mph14.5 kmh 29.86 in1011.2 mb 0.00 in0.0 mm 0.00 in0.0 mm 0.02 in0.5 mm
12:00 PM 74.3°F23.5°C 65.1°F18.4°C 73% 4.0 mph E6.4 kmh E 9.0 mph14.5 kmh 29.86 in1011.2 mb 0.00 in0.0 mm 0.00 in0.0 mm 0.02 in0.5 mm
12:05 PM 74.3°F23.5°C 65.5°F18.6°C 74% 3.0 mph E4.8 kmh E 7.0 mph11.3 kmh 29.86 in1011.2 mb 0.00 in0.0 mm 0.00 in0.0 mm 0.02 in0.5 mm
12:10 PM 74.3°F23.5°C 65.9°F18.8°C 75% 3.0 mph E4.8 kmh E 9.0 mph14.5 kmh 29.86 in1011.2 mb 0.00 in0.0 mm 0.00 in0.0 mm 0.02 in0.5 mm
12:15 PM 74.4°F23.6°C 65.6°F18.7°C 74% 3.0 mph ESE4.8 kmh ESE 9.0 mph14.5 kmh 29.86 in1011.2 mb 0.00 in0.0 mm 0.00 in0.0 mm 0.02 in0.5 mm
12:20 PM 74.6°F23.7°C 65.4°F18.6°C 73% 2.0 mph ESE3.2 kmh ESE 4.0 mph6.4 kmh 29.86 in1011.2 mb 0.00 in0.0 mm 0.00 in0.0 mm 0.02 in0.5 mm
12:25 PM 75.0°F23.9°C 66.1°F18.9°C 74% 2.0 mph ESE3.2 kmh ESE 4.0 mph6.4 kmh 29.85 in1010.8 mb 0.00 in0.0 mm 0.00 in0.0 mm 0.02 in0.5 mm
12:30 PM 75.6°F24.2°C 65.5°F18.6°C 71% 2.0 mph SE3.2 kmh SE 5.0 mph8.0 kmh 29.86 in1011.2 mb 0.00 in0.0 mm 0.00 in0.0 mm 0.02 in0.5 mm
12:35 PM 76.2°F24.6°C 65.7°F18.7°C 70% 3.0 mph SE4.8 kmh SE 7.0 mph11.3 kmh 29.85 in1010.8 mb 0.00 in0.0 mm 0.00 in0.0 mm 0.02 in0.5 mm
12:40 PM 76.5°F24.7°C 64.7°F18.2°C 67% 3.0 mph ESE4.8 kmh ESE 7.0 mph11.3 kmh 29.85 in1010.8 mb 0.00 in0.0 mm 0.00 in0.0 mm 0.02 in0.5 mm
12:45 PM 76.8°F24.9°C 65.4°F18.6°C 68% 3.0 mph E4.8 kmh E 7.0 mph11.3 kmh 29.85 in1010.8 mb 0.00 in0.0 mm 0.00 in0.0 mm 0.02 in0.5 mm
12:50 PM 77.5°F25.3°C 65.7°F18.7°C 67% 3.0 mph E4.8 kmh E 8.0 mph12.9 kmh 29.84 in1010.5 mb 0.00 in0.0 mm 0.00 in0.0 mm 0.02 in0.5 mm
12:55 PM 78.1°F25.6°C 64.5°F18.1°C 63% 3.0 mph E4.8 kmh E 8.0 mph12.9 kmh 29.84 in1010.5 mb 0.00 in0.0 mm 0.00 in0.0 mm 0.02 in0.5 mm
01:00 PM 78.3°F25.7°C 62.8°F17.1°C 59% 3.0 mph E4.8 kmh E 6.0 mph9.7 kmh 29.84 in1010.5 mb 0.00 in0.0 mm 0.00 in0.0 mm 0.02 in0.5 mm
01:05 PM 78.4°F25.8°C 62.4°F16.9°C 58% 3.0 mph ENE4.8 kmh ENE 6.0 mph9.7 kmh 29.84 in1010.5 mb 0.00 in0.0 mm 0.00 in0.0 mm 0.02 in0.5 mm
01:10 PM 78.6°F25.9°C 62.6°F17.0°C 58% 4.0 mph ENE6.4 kmh ENE 8.0 mph12.9 kmh 29.83 in1010.2 mb 0.00 in0.0 mm 0.00 in0.0 mm 0.02 in0.5 mm
01:15 PM 78.6°F25.9°C 62.1°F16.7°C 57% 5.0 mph ENE8.0 kmh ENE 9.0 mph14.5 kmh 29.83 in1010.2 mb 0.00 in0.0 mm 0.00 in0.0 mm 0.02 in0.5 mm
01:20 PM 79.1°F26.2°C 62.6°F17.0°C 57% 4.0 mph E6.4 kmh E 9.0 mph14.5 kmh 29.82 in1009.8 mb 0.00 in0.0 mm 0.00 in0.0 mm 0.02 in0.5 mm
01:25 PM 79.8°F26.6°C 61.7°F16.5°C 54% 4.0 mph E6.4 kmh E 9.0 mph14.5 kmh 29.82 in1009.8 mb 0.00 in0.0 mm 0.00 in0.0 mm 0.02 in0.5 mm
01:30 PM 80.6°F27.0°C 61.9°F16.6°C 53% 4.0 mph E6.4 kmh E 9.0 mph14.5 kmh 29.82 in1009.8 mb 0.00 in0.0 mm 0.00 in0.0 mm 0.02 in0.5 mm
01:35 PM 80.7°F27.1°C 62.5°F16.9°C 54% 4.0 mph E6.4 kmh E 9.0 mph14.5 kmh 29.82 in1009.8 mb 0.00 in0.0 mm 0.00 in0.0 mm 0.02 in0.5 mm
01:40 PM 80.8°F27.1°C 63.1°F17.3°C 55% 5.0 mph ENE8.0 kmh ENE 10.0 mph16.1 kmh 29.81 in1009.5 mb 0.00 in0.0 mm 0.00 in0.0 mm 0.02 in0.5 mm
01:45 PM 81.1°F27.3°C 63.9°F17.7°C 56% 4.0 mph ENE6.4 kmh ENE 10.0 mph16.1 kmh 29.80 in1009.1 mb 0.00 in0.0 mm 0.00 in0.0 mm 0.02 in0.5 mm
01:50 PM 81.5°F27.5°C 62.7°F17.1°C 53% 3.0 mph E4.8 kmh E 7.0 mph11.3 kmh 29.81 in1009.5 mb 0.00 in0.0 mm 0.00 in0.0 mm 0.02 in0.5 mm
01:55 PM 82.2°F27.9°C 63.4°F17.4°C 53% 2.0 mph ESE3.2 kmh ESE 6.0 mph9.7 kmh 29.80 in1009.1 mb 0.00 in0.0 mm 0.00 in0.0 mm 0.02 in0.5 mm
02:00 PM 82.9°F28.3°C 62.9°F17.2°C 51% 2.0 mph ESE3.2 kmh ESE 7.0 mph11.3 kmh 29.80 in1009.1 mb 0.00 in0.0 mm 0.00 in0.0 mm 0.02 in0.5 mm
02:05 PM 84.0°F28.9°C 62.8°F17.1°C 49% 2.0 mph E3.2 kmh E 7.0 mph11.3 kmh 29.80 in1009.1 mb 0.00 in0.0 mm 0.00 in0.0 mm 0.02 in0.5 mm
02:10 PM 85.3°F29.6°C 63.4°F17.4°C 48% 2.0 mph SE3.2 kmh SE 4.0 mph6.4 kmh 29.79 in1008.8 mb 0.00 in0.0 mm 0.00 in0.0 mm 0.02 in0.5 mm
02:15 PM 86.4°F30.2°C 61.9°F16.6°C 44% 2.0 mph SE3.2 kmh SE 6.0 mph9.7 kmh 29.79 in1008.8 mb 0.00 in0.0 mm 0.00 in0.0 mm 0.02 in0.5 mm
02:20 PM 86.8°F30.4°C 62.3°F16.8°C 44% 2.0 mph ESE3.2 kmh ESE 6.0 mph9.7 kmh 29.79 in1008.8 mb 0.00 in0.0 mm 0.00 in0.0 mm 0.02 in0.5 mm
02:25 PM 87.9°F31.1°C 61.3°F16.3°C 41% 2.0 mph ESE3.2 kmh ESE 4.0 mph6.4 kmh 29.78 in1008.5 mb 0.00 in0.0 mm 0.00 in0.0 mm 0.02 in0.5 mm
02:30 PM 88.7°F31.5°C 61.3°F16.3°C 40% 1.0 mph SE1.6 kmh SE 3.0 mph4.8 kmh 29.78 in1008.5 mb 0.00 in0.0 mm 0.00 in0.0 mm 0.02 in0.5 mm
02:35 PM 89.0°F31.7°C 60.8°F16.0°C 39% 2.0 mph SE3.2 kmh SE 3.0 mph4.8 kmh 29.77 in1008.1 mb 0.00 in0.0 mm 0.00 in0.0 mm 0.02 in0.5 mm
02:40 PM 89.5°F31.9°C 58.2°F14.6°C 35% 2.0 mph SE3.2 kmh SE 4.0 mph6.4 kmh 29.77 in1008.1 mb 0.00 in0.0 mm 0.00 in0.0 mm 0.02 in0.5 mm
02:45 PM 89.9°F32.2°C 59.4°F15.2°C 36% 2.0 mph S3.2 kmh S 4.0 mph6.4 kmh 29.77 in1008.1 mb 0.00 in0.0 mm 0.00 in0.0 mm 0.02 in0.5 mm
02:50 PM 90.2°F32.3°C 59.6°F15.3°C 36% 2.0 mph WSW3.2 kmh WSW 4.0 mph6.4 kmh 29.76 in1007.8 mb 0.00 in0.0 mm 0.00 in0.0 mm 0.02 in0.5 mm
02:55 PM 90.5°F32.5°C 59.1°F15.1°C 35% 2.0 mph WSW3.2 kmh WSW 7.0 mph11.3 kmh 29.76 in1007.8 mb 0.00 in0.0 mm 0.00 in0.0 mm 0.02 in0.5 mm
03:00 PM 91.0°F32.8°C 58.7°F14.8°C 34% 3.0 mph SW4.8 kmh SW 7.0 mph11.3 kmh 29.77 in1008.1 mb 0.00 in0.0 mm 0.00 in0.0 mm 0.02 in0.5 mm
03:05 PM 91.1°F32.8°C 57.1°F13.9°C 32% 3.0 mph SW4.8 kmh SW 6.0 mph9.7 kmh 29.76 in1007.8 mb 0.00 in0.0 mm 0.00 in0.0 mm 0.02 in0.5 mm
03:10 PM 91.2°F32.9°C 58.1°F14.5°C 33% 3.0 mph SSW4.8 kmh SSW 7.0 mph11.3 kmh 29.77 in1008.1 mb 0.00 in0.0 mm 0.00 in0.0 mm 0.02 in0.5 mm
03:15 PM 91.2°F32.9°C 58.1°F14.5°C 33% 4.0 mph SSW6.4 kmh SSW 7.0 mph11.3 kmh 29.77 in1008.1 mb 0.00 in0.0 mm 0.00 in0.0 mm 0.02 in0.5 mm
03:20 PM 91.0°F32.8°C 57.9°F14.4°C 33% 4.0 mph SSW6.4 kmh SSW 7.0 mph11.3 kmh 29.77 in1008.1 mb 0.00 in0.0 mm 0.00 in0.0 mm 0.02 in0.5 mm
03:25 PM 90.8°F32.7°C 57.7°F14.3°C 33% 4.0 mph SSW6.4 kmh SSW 9.0 mph14.5 kmh 29.77 in1008.1 mb 0.00 in0.0 mm 0.00 in0.0 mm 0.02 in0.5 mm
03:30 PM 91.2°F32.9°C 58.1°F14.5°C 33% 3.0 mph S4.8 kmh S 9.0 mph14.5 kmh 29.76 in1007.8 mb 0.00 in0.0 mm 0.00 in0.0 mm 0.02 in0.5 mm
03:35 PM 91.8°F33.2°C 56.9°F13.8°C 31% 4.0 mph S6.4 kmh S 8.0 mph12.9 kmh 29.76 in1007.8 mb 0.00 in0.0 mm 0.00 in0.0 mm 0.02 in0.5 mm
03:40 PM 92.1°F33.4°C 58.0°F14.4°C 32% 4.0 mph S6.4 kmh S 8.0 mph12.9 kmh 29.77 in1008.1 mb 0.00 in0.0 mm 0.00 in0.0 mm 0.02 in0.5 mm
03:45 PM 92.5°F33.6°C 57.5°F14.2°C 31% 3.0 mph S4.8 kmh S 6.0 mph9.7 kmh 29.76 in1007.8 mb 0.00 in0.0 mm 0.00 in0.0 mm 0.02 in0.5 mm
03:50 PM 92.8°F33.8°C 56.8°F13.8°C 30% 3.0 mph S4.8 kmh S 6.0 mph9.7 kmh 29.76 in1007.8 mb 0.00 in0.0 mm 0.00 in0.0 mm 0.02 in0.5 mm
03:55 PM 92.5°F33.6°C 56.6°F13.7°C 30% 3.0 mph SSW4.8 kmh SSW 5.0 mph8.0 kmh 29.76 in1007.8 mb 0.00 in0.0 mm 0.00 in0.0 mm 0.02 in0.5 mm
04:00 PM 92.6°F33.7°C 55.7°F13.2°C 29% 3.0 mph SW4.8 kmh SW 5.0 mph8.0 kmh 29.75 in1007.5 mb 0.00 in0.0 mm 0.00 in0.0 mm 0.02 in0.5 mm
04:05 PM 92.7°F33.7°C 56.7°F13.7°C 30% 3.0 mph SW4.8 kmh SW 5.0 mph8.0 kmh 29.75 in1007.5 mb 0.00 in0.0 mm 0.00 in0.0 mm 0.02 in0.5 mm
04:10 PM 92.6°F33.7°C 57.6°F14.2°C 31% 3.0 mph SSW4.8 kmh SSW 6.0 mph9.7 kmh 29.75 in1007.5 mb 0.00 in0.0 mm 0.00 in0.0 mm 0.02 in0.5 mm
04:15 PM 92.0°F33.3°C 57.0°F13.9°C 31% 3.0 mph S4.8 kmh S 7.0 mph11.3 kmh 29.76 in1007.8 mb 0.00 in0.0 mm 0.00 in0.0 mm 0.02 in0.5 mm
04:20 PM 91.4°F33.0°C 56.5°F13.6°C 31% 3.0 mph SSE4.8 kmh SSE 7.0 mph11.3 kmh 29.76 in1007.8 mb 0.00 in0.0 mm 0.00 in0.0 mm 0.02 in0.5 mm
04:25 PM 90.9°F32.7°C 57.0°F13.9°C 32% 3.0 mph SE4.8 kmh SE 6.0 mph9.7 kmh 29.76 in1007.8 mb 0.00 in0.0 mm 0.00 in0.0 mm 0.02 in0.5 mm
04:30 PM 90.5°F32.5°C 56.6°F13.7°C 32% 3.0 mph SSE4.8 kmh SSE 6.0 mph9.7 kmh 29.76 in1007.8 mb 0.00 in0.0 mm 0.00 in0.0 mm 0.02 in0.5 mm
04:35 PM 90.1°F32.3°C 56.3°F13.5°C 32% 3.0 mph S4.8 kmh S 6.0 mph9.7 kmh 29.76 in1007.8 mb 0.00 in0.0 mm 0.00 in0.0 mm 0.02 in0.5 mm
04:40 PM 89.8°F32.1°C 56.9°F13.8°C 33% 2.0 mph S3.2 kmh S 6.0 mph9.7 kmh 29.76 in1007.8 mb 0.00 in0.0 mm 0.00 in0.0 mm 0.02 in0.5 mm
04:45 PM 89.6°F32.0°C 55.8°F13.2°C 32% 2.0 mph SSE3.2 kmh SSE 5.0 mph8.0 kmh 29.76 in1007.8 mb 0.00 in0.0 mm 0.00 in0.0 mm 0.02 in0.5 mm
04:50 PM 89.4°F31.9°C 56.5°F13.6°C 33% 2.0 mph S3.2 kmh S 6.0 mph9.7 kmh 29.76 in1007.8 mb 0.00 in0.0 mm 0.00 in0.0 mm 0.02 in0.5 mm
04:55 PM 89.2°F31.8°C 56.3°F13.5°C 33% 2.0 mph S3.2 kmh S 6.0 mph9.7 kmh 29.76 in1007.8 mb 0.00 in0.0 mm 0.00 in0.0 mm 0.02 in0.5 mm
05:00 PM 89.0°F31.7°C 57.0°F13.9°C 34% 1.0 mph SSE1.6 kmh SSE 5.0 mph8.0 kmh 29.76 in1007.8 mb 0.00 in0.0 mm 0.00 in0.0 mm 0.02 in0.5 mm
05:05 PM 89.0°F31.7°C 57.0°F13.9°C 34% 2.0 mph S3.2 kmh S 5.0 mph8.0 kmh 29.76 in1007.8 mb 0.00 in0.0 mm 0.00 in0.0 mm 0.02 in0.5 mm
05:10 PM 88.7°F31.5°C 56.7°F13.7°C 34% 2.0 mph S3.2 kmh S 5.0 mph8.0 kmh 29.76 in1007.8 mb 0.00 in0.0 mm 0.00 in0.0 mm 0.02 in0.5 mm
05:15 PM 88.6°F31.4°C 56.6°F13.7°C 34% 2.0 mph S3.2 kmh S 4.0 mph6.4 kmh 29.76 in1007.8 mb 0.00 in0.0 mm 0.00 in0.0 mm 0.02 in0.5 mm
05:20 PM 88.4°F31.3°C 56.5°F13.6°C 34% 1.0 mph S1.6 kmh S 4.0 mph6.4 kmh 29.75 in1007.5 mb 0.00 in0.0 mm 0.00 in0.0 mm 0.02 in0.5 mm
05:25 PM 88.2°F31.2°C 57.1°F13.9°C 35% 1.0 mph S1.6 kmh S 3.0 mph4.8 kmh 29.75 in1007.5 mb 0.00 in0.0 mm 0.00 in0.0 mm 0.02 in0.5 mm
05:30 PM 88.0°F31.1°C 56.9°F13.8°C 35% 2.0 mph S3.2 kmh S 5.0 mph8.0 kmh 29.75 in1007.5 mb 0.00 in0.0 mm 0.00 in0.0 mm 0.02 in0.5 mm
06:15 PM 86.6°F30.3°C 58.7°F14.8°C 39% 2.0 mph SSW3.2 kmh SSW 4.0 mph6.4 kmh 29.76 in1007.8 mb 0.00 in0.0 mm 0.00 in0.0 mm 0.02 in0.5 mm
06:20 PM 86.4°F30.2°C 59.2°F15.1°C 40% 2.0 mph S3.2 kmh S 4.0 mph6.4 kmh 29.77 in1008.1 mb 0.00 in0.0 mm 0.00 in0.0 mm 0.02 in0.5 mm
06:25 PM 86.2°F30.1°C 58.3°F14.6°C 39% 3.0 mph S4.8 kmh S 8.0 mph12.9 kmh 29.77 in1008.1 mb 0.00 in0.0 mm 0.00 in0.0 mm 0.02 in0.5 mm
06:30 PM 85.9°F29.9°C 57.3°F14.1°C 38% 4.0 mph SSW6.4 kmh SSW 8.0 mph12.9 kmh 29.78 in1008.5 mb 0.00 in0.0 mm 0.00 in0.0 mm 0.02 in0.5 mm
06:35 PM 85.7°F29.8°C 58.6°F14.8°C 40% 5.0 mph S8.0 kmh S 9.0 mph14.5 kmh 29.78 in1008.5 mb 0.00 in0.0 mm 0.00 in0.0 mm 0.02 in0.5 mm
06:40 PM 85.5°F29.7°C 58.4°F14.7°C 40% 5.0 mph S8.0 kmh S 9.0 mph14.5 kmh 29.79 in1008.8 mb 0.00 in0.0 mm 0.00 in0.0 mm 0.02 in0.5 mm
06:45 PM 85.3°F29.6°C 58.9°F14.9°C 41% 6.0 mph S9.7 kmh S 11.0 mph17.7 kmh 29.79 in1008.8 mb 0.00 in0.0 mm 0.00 in0.0 mm 0.02 in0.5 mm
06:50 PM 85.2°F29.6°C 58.8°F14.9°C 41% 6.0 mph S9.7 kmh S 11.0 mph17.7 kmh 29.80 in1009.1 mb 0.00 in0.0 mm 0.00 in0.0 mm 0.02 in0.5 mm
06:55 PM 85.1°F29.5°C 59.4°F15.2°C 42% 5.0 mph S8.0 kmh S 9.0 mph14.5 kmh 29.80 in1009.1 mb 0.00 in0.0 mm 0.00 in0.0 mm 0.02 in0.5 mm
07:00 PM 84.9°F29.4°C 59.9°F15.5°C 43% 4.0 mph S6.4 kmh S 8.0 mph12.9 kmh 29.80 in1009.1 mb 0.00 in0.0 mm 0.00 in0.0 mm 0.02 in0.5 mm
07:05 PM 84.7°F29.3°C 60.4°F15.8°C 44% 4.0 mph SSW6.4 kmh SSW 8.0 mph12.9 kmh 29.81 in1009.5 mb 0.00 in0.0 mm 0.00 in0.0 mm 0.02 in0.5 mm
07:10 PM 84.5°F29.2°C 60.8°F16.0°C 45% 5.0 mph SSW8.0 kmh SSW 9.0 mph14.5 kmh 29.81 in1009.5 mb 0.00 in0.0 mm 0.00 in0.0 mm 0.02 in0.5 mm
07:15 PM 84.4°F29.1°C 61.4°F16.3°C 46% 4.0 mph SSW6.4 kmh SSW 9.0 mph14.5 kmh 29.81 in1009.5 mb 0.00 in0.0 mm 0.00 in0.0 mm 0.02 in0.5 mm
07:20 PM 84.2°F29.0°C 61.8°F16.6°C 47% 4.0 mph SSW6.4 kmh SSW 10.0 mph16.1 kmh 29.82 in1009.8 mb 0.00 in0.0 mm 0.00 in0.0 mm 0.02 in0.5 mm
07:25 PM 84.0°F28.9°C 62.2°F16.8°C 48% 5.0 mph S8.0 kmh S 10.0 mph16.1 kmh 29.81 in1009.5 mb 0.00 in0.0 mm 0.00 in0.0 mm 0.02 in0.5 mm
07:30 PM 83.7°F28.7°C 61.9°F16.6°C 48% 6.0 mph S9.7 kmh S 10.0 mph16.1 kmh 29.81 in1009.5 mb 0.00 in0.0 mm 0.00 in0.0 mm 0.02 in0.5 mm
07:35 PM 83.5°F28.6°C 62.3°F16.8°C 49% 5.0 mph SSW8.0 kmh SSW 9.0 mph14.5 kmh 29.81 in1009.5 mb 0.00 in0.0 mm 0.00 in0.0 mm 0.02 in0.5 mm
07:40 PM 83.4°F28.6°C 62.2°F16.8°C 49% 4.0 mph SSW6.4 kmh SSW 9.0 mph14.5 kmh 29.81 in1009.5 mb 0.00 in0.0 mm 0.00 in0.0 mm 0.02 in0.5 mm
07:45 PM 83.2°F28.4°C 62.6°F17.0°C 50% 3.0 mph SSW4.8 kmh SSW 9.0 mph14.5 kmh 29.81 in1009.5 mb 0.00 in0.0 mm 0.00 in0.0 mm 0.02 in0.5 mm
07:50 PM 83.0°F28.3°C 61.9°F16.6°C 49% 4.0 mph SSW6.4 kmh SSW 8.0 mph12.9 kmh 29.82 in1009.8 mb 0.00 in0.0 mm 0.00 in0.0 mm 0.02 in0.5 mm
07:55 PM 82.8°F28.2°C 62.3°F16.8°C 50% 4.0 mph S6.4 kmh S 8.0 mph12.9 kmh 29.82 in1009.8 mb 0.00 in0.0 mm 0.00 in0.0 mm 0.02 in0.5 mm
08:00 PM 82.6°F28.1°C 62.1°F16.7°C 50% 4.0 mph S6.4 kmh S 9.0 mph14.5 kmh 29.82 in1009.8 mb 0.00 in0.0 mm 0.00 in0.0 mm 0.02 in0.5 mm
08:05 PM 82.5°F28.1°C 62.0°F16.7°C 50% 4.0 mph SSW6.4 kmh SSW 10.0 mph16.1 kmh 29.82 in1009.8 mb 0.00 in0.0 mm 0.00 in0.0 mm 0.02 in0.5 mm
08:10 PM 82.4°F28.0°C 61.3°F16.3°C 49% 4.0 mph S6.4 kmh S 10.0 mph16.1 kmh 29.82 in1009.8 mb 0.00 in0.0 mm 0.00 in0.0 mm 0.02 in0.5 mm
08:15 PM 82.3°F27.9°C 61.2°F16.2°C 49% 4.0 mph SSW6.4 kmh SSW 9.0 mph14.5 kmh 29.82 in1009.8 mb 0.00 in0.0 mm 0.00 in0.0 mm 0.02 in0.5 mm
08:20 PM 82.2°F27.9°C 61.7°F16.5°C 50% 4.0 mph SSW6.4 kmh SSW 9.0 mph14.5 kmh 29.82 in1009.8 mb 0.00 in0.0 mm 0.00 in0.0 mm 0.02 in0.5 mm
08:25 PM 82.1°F27.8°C 62.2°F16.8°C 51% 4.0 mph S6.4 kmh S 8.0 mph12.9 kmh 29.82 in1009.8 mb 0.00 in0.0 mm 0.00 in0.0 mm 0.02 in0.5 mm
08:30 PM 81.9°F27.7°C 62.0°F16.7°C 51% 4.0 mph S6.4 kmh S 8.0 mph12.9 kmh 29.82 in1009.8 mb 0.00 in0.0 mm 0.00 in0.0 mm 0.02 in0.5 mm
08:35 PM 81.8°F27.7°C 62.5°F16.9°C 52% 4.0 mph SSW6.4 kmh SSW 8.0 mph12.9 kmh 29.82 in1009.8 mb 0.00 in0.0 mm 0.00 in0.0 mm 0.02 in0.5 mm
08:40 PM 81.6°F27.6°C 62.3°F16.8°C 52% 4.0 mph SSW6.4 kmh SSW 8.0 mph12.9 kmh 29.83 in1010.2 mb 0.00 in0.0 mm 0.00 in0.0 mm 0.02 in0.5 mm
08:45 PM 81.5°F27.5°C 62.7°F17.1°C 53% 4.0 mph S6.4 kmh S 7.0 mph11.3 kmh 29.83 in1010.2 mb 0.00 in0.0 mm 0.00 in0.0 mm 0.02 in0.5 mm
08:50 PM 81.4°F27.4°C 63.2°F17.3°C 54% 3.0 mph S4.8 kmh S 7.0 mph11.3 kmh 29.83 in1010.2 mb 0.00 in0.0 mm 0.00 in0.0 mm 0.02 in0.5 mm
08:55 PM 81.2°F27.3°C 63.0°F17.2°C 54% 3.0 mph S4.8 kmh S 6.0 mph9.7 kmh 29.83 in1010.2 mb 0.00 in0.0 mm 0.00 in0.0 mm 0.02 in0.5 mm
09:00 PM 81.0°F27.2°C 62.8°F17.1°C 54% 3.0 mph S4.8 kmh S 6.0 mph9.7 kmh 29.84 in1010.5 mb 0.00 in0.0 mm 0.00 in0.0 mm 0.02 in0.5 mm
09:05 PM 80.9°F27.2°C 62.7°F17.1°C 54% 3.0 mph S4.8 kmh S 6.0 mph9.7 kmh 29.83 in1010.2 mb 0.00 in0.0 mm 0.00 in0.0 mm 0.02 in0.5 mm
09:10 PM 80.8°F27.1°C 63.1°F17.3°C 55% 2.0 mph S3.2 kmh S 6.0 mph9.7 kmh 29.84 in1010.5 mb 0.00 in0.0 mm 0.00 in0.0 mm 0.02 in0.5 mm
09:15 PM 80.7°F27.1°C 63.5°F17.5°C 56% 2.0 mph S3.2 kmh S 5.0 mph8.0 kmh 29.84 in1010.5 mb 0.00 in0.0 mm 0.00 in0.0 mm 0.02 in0.5 mm
09:20 PM 80.5°F26.9°C 63.4°F17.4°C 56% 1.0 mph S1.6 kmh S 3.0 mph4.8 kmh 29.84 in1010.5 mb 0.00 in0.0 mm 0.00 in0.0 mm 0.02 in0.5 mm
09:25 PM 80.4°F26.9°C 64.3°F17.9°C 58% 1.0 mph SE1.6 kmh SE 4.0 mph6.4 kmh 29.84 in1010.5 mb 0.00 in0.0 mm 0.00 in0.0 mm 0.02 in0.5 mm
09:30 PM 80.2°F26.8°C 64.6°F18.1°C 59% 1.0 mph E1.6 kmh E 4.0 mph6.4 kmh 29.84 in1010.5 mb 0.00 in0.0 mm 0.00 in0.0 mm 0.02 in0.5 mm
09:35 PM 79.9°F26.6°C 64.8°F18.2°C 60% 2.0 mph E3.2 kmh E 4.0 mph6.4 kmh 29.84 in1010.5 mb 0.00 in0.0 mm 0.00 in0.0 mm 0.02 in0.5 mm
09:40 PM 79.6°F26.4°C 64.5°F18.1°C 60% 2.0 mph E3.2 kmh E 4.0 mph6.4 kmh 29.84 in1010.5 mb 0.00 in0.0 mm 0.00 in0.0 mm 0.02 in0.5 mm
09:45 PM 79.4°F26.3°C 64.3°F17.9°C 60% 2.0 mph E3.2 kmh E 3.0 mph4.8 kmh 29.85 in1010.8 mb 0.00 in0.0 mm 0.00 in0.0 mm 0.02 in0.5 mm
09:50 PM 79.2°F26.2°C 64.1°F17.8°C 60% 1.0 mph E1.6 kmh E 3.0 mph4.8 kmh 29.85 in1010.8 mb 0.00 in0.0 mm 0.00 in0.0 mm 0.02 in0.5 mm
09:55 PM 79.1°F26.2°C 64.5°F18.1°C 61% 1.0 mph E1.6 kmh E 3.0 mph4.8 kmh 29.85 in1010.8 mb 0.00 in0.0 mm 0.00 in0.0 mm 0.02 in0.5 mm
10:00 PM 79.0°F26.1°C 64.4°F18.0°C 61% 2.0 mph E3.2 kmh E 3.0 mph4.8 kmh 29.85 in1010.8 mb 0.00 in0.0 mm 0.00 in0.0 mm 0.02 in0.5 mm
10:05 PM 78.9°F26.1°C 64.3°F17.9°C 61% 2.0 mph E3.2 kmh E 6.0 mph9.7 kmh 29.85 in1010.8 mb 0.00 in0.0 mm 0.00 in0.0 mm 0.02 in0.5 mm
10:10 PM 78.8°F26.0°C 64.2°F17.9°C 61% 2.0 mph E3.2 kmh E 6.0 mph9.7 kmh 29.85 in1010.8 mb 0.00 in0.0 mm 0.00 in0.0 mm 0.02 in0.5 mm
10:15 PM 78.7°F25.9°C 64.1°F17.8°C 61% 1.0 mph E1.6 kmh E 4.0 mph6.4 kmh 29.85 in1010.8 mb 0.00 in0.0 mm 0.00 in0.0 mm 0.02 in0.5 mm
10:20 PM 78.7°F25.9°C 64.1°F17.8°C 61% 1.0 mph E1.6 kmh E 3.0 mph4.8 kmh 29.86 in1011.2 mb 0.00 in0.0 mm 0.00 in0.0 mm 0.02 in0.5 mm
10:25 PM 78.7°F25.9°C 63.6°F17.6°C 60% 1.0 mph E1.6 kmh E 3.0 mph4.8 kmh 29.86 in1011.2 mb 0.00 in0.0 mm 0.00 in0.0 mm 0.02 in0.5 mm
10:30 PM 78.7°F25.9°C 64.1°F17.8°C 61% 2.0 mph E3.2 kmh E 3.0 mph4.8 kmh 29.86 in1011.2 mb 0.00 in0.0 mm 0.00 in0.0 mm 0.02 in0.5 mm
10:35 PM 78.6°F25.9°C 64.0°F17.8°C 61% 1.0 mph E1.6 kmh E 3.0 mph4.8 kmh 29.86 in1011.2 mb 0.00 in0.0 mm 0.00 in0.0 mm 0.02 in0.5 mm
10:40 PM 78.6°F25.9°C 64.0°F17.8°C 61% 1.0 mph E1.6 kmh E 2.0 mph3.2 kmh 29.86 in1011.2 mb 0.00 in0.0 mm 0.00 in0.0 mm 0.02 in0.5 mm
10:45 PM 78.5°F25.8°C 63.9°F17.7°C 61% 1.0 mph E1.6 kmh E 2.0 mph3.2 kmh 29.86 in1011.2 mb 0.00 in0.0 mm 0.00 in0.0 mm 0.02 in0.5 mm
10:50 PM 78.5°F25.8°C 63.9°F17.7°C 61% 1.0 mph E1.6 kmh E 2.0 mph3.2 kmh 29.86 in1011.2 mb 0.00 in0.0 mm 0.00 in0.0 mm 0.02 in0.5 mm
10:55 PM 78.4°F25.8°C 63.8°F17.7°C 61% 1.0 mph SE1.6 kmh SE 4.0 mph6.4 kmh 29.86 in1011.2 mb 0.00 in0.0 mm 0.00 in0.0 mm 0.02 in0.5 mm
11:00 PM 78.4°F25.8°C 64.3°F17.9°C 62% 2.0 mph S3.2 kmh S 4.0 mph6.4 kmh 29.86 in1011.2 mb 0.00 in0.0 mm 0.00 in0.0 mm 0.02 in0.5 mm
11:05 PM 78.3°F25.7°C 64.7°F18.2°C 63% 1.0 mph S1.6 kmh S 2.0 mph3.2 kmh 29.86 in1011.2 mb 0.00 in0.0 mm 0.00 in0.0 mm 0.02 in0.5 mm
11:10 PM 78.3°F25.7°C 64.2°F17.9°C 62% 1.0 mph S1.6 kmh S 2.0 mph3.2 kmh 29.86 in1011.2 mb 0.00 in0.0 mm 0.00 in0.0 mm 0.02 in0.5 mm
11:15 PM 78.2°F25.7°C 64.1°F17.8°C 62% 1.0 mph SE1.6 kmh SE 3.0 mph4.8 kmh 29.86 in1011.2 mb 0.00 in0.0 mm 0.00 in0.0 mm 0.02 in0.5 mm
11:20 PM 78.1°F25.6°C 64.0°F17.8°C 62% 2.0 mph SE3.2 kmh SE 7.0 mph11.3 kmh 29.86 in1011.2 mb 0.00 in0.0 mm 0.00 in0.0 mm 0.02 in0.5 mm
11:25 PM 78.1°F25.6°C 64.5°F18.1°C 63% 3.0 mph S4.8 kmh S 7.0 mph11.3 kmh 29.86 in1011.2 mb 0.00 in0.0 mm 0.00 in0.0 mm 0.02 in0.5 mm
11:30 PM 78.1°F25.6°C 64.5°F18.1°C 63% 3.0 mph S4.8 kmh S 6.0 mph9.7 kmh 29.86 in1011.2 mb 0.00 in0.0 mm 0.00 in0.0 mm 0.02 in0.5 mm
11:35 PM 78.1°F25.6°C 64.0°F17.8°C 62% 3.0 mph S4.8 kmh S 6.0 mph9.7 kmh 29.86 in1011.2 mb 0.00 in0.0 mm 0.00 in0.0 mm 0.02 in0.5 mm
11:40 PM 78.1°F25.6°C 64.5°F18.1°C 63% 2.0 mph S3.2 kmh S 6.0 mph9.7 kmh 29.86 in1011.2 mb 0.00 in0.0 mm 0.00 in0.0 mm 0.02 in0.5 mm
11:45 PM 78.1°F25.6°C 64.0°F17.8°C 62% 2.0 mph S3.2 kmh S 6.0 mph9.7 kmh 29.86 in1011.2 mb 0.00 in0.0 mm 0.00 in0.0 mm 0.02 in0.5 mm
11:50 PM 78.1°F25.6°C 64.0°F17.8°C 62% 3.0 mph S4.8 kmh S 6.0 mph9.7 kmh 29.86 in1011.2 mb 0.00 in0.0 mm 0.00 in0.0 mm 0.02 in0.5 mm
11:55 PM 78.1°F25.6°C 64.0°F17.8°C 62% 2.0 mph S3.2 kmh S 5.0 mph8.0 kmh 29.86 in1011.2 mb 0.00 in0.0 mm 0.00 in0.0 mm 0.02 in0.5 mm